Nicolau Vergueiro, Brazil
Current Conditions -  °F | °C
As of 6:00 PM on Sunday 25 Jan 2015 (Local Time) from SBCH Reporting Station
Thunderstorm Thunderstorm  
Wind Chill: 68°   Ceiling: 4000
Heat Index: 68°   Visibility: 6mi
Dew Point: 66°   Wind: 8mph
Humidity: 94%   Direction: 120°ESE
Pressure: 29.91"   Gusts: NA
Location:  28.54°S, 52.46°W
Report Text: SBCH 252000Z 12007KT 9999 TS BKN040 FEW050CB BKN090 20/19 Q1013
Loading
Personal Weather Stations






























Interactive Weather Map New forecast layout! Learn more

10-Day Weather Forecast

Advertisements
Track Severe Weather on mobile